Time;durP1;ratioP1;P1;durP2;ratioP2;P2;SDS_P1;SDS_P2;PMS_P1;PMS_P2;Temp;Humidity;BMP_temperature;BMP_pressure;BME280_temperature;BME280_humidity;BME280_pressure;Samples;Min_cycle;Max_cycle;Signal;HPM_P1;HPM_P2
2021/04/28 00:01:31;;;;;;;7.47;2.93;;;;;;;10.53;42.95;100714.28;5117481;28;20489;-48
2021/04/28 00:03:58;;;;;;;6.77;3.10;;;;;;;10.63;42.59;100715.56;5116410;28;20431;-50
2021/04/28 00:06:25;;;;;;;6.10;3.10;;;;;;;10.87;42.17;100719.94;5117531;28;20487;-50
2021/04/28 00:08:51;;;;;;;7.50;2.90;;;;;;;11.03;41.65;100715.38;5117621;28;20464;-51
2021/04/28 00:11:18;;;;;;;6.33;2.93;;;;;;;10.88;42.04;100708.78;5115953;28;20458;-51
2021/04/28 00:13:44;;;;;;;7.13;3.17;;;;;;;10.96;41.77;100709.09;5117836;28;20827;-50
2021/04/28 00:16:11;;;;;;;8.13;3.47;;;;;;;10.66;42.38;100707.03;5116090;28;20448;-48
2021/04/28 00:18:39;;;;;;;7.87;2.90;;;;;;;10.80;42.34;100700.75;5117493;28;20437;-51
2021/04/28 00:21:05;;;;;;;6.10;2.40;;;;;;;10.74;41.95;100707.34;5115655;28;20955;-51
2021/04/28 00:23:32;;;;;;;11.60;2.97;;;;;;;10.57;42.58;100709.25;5117261;28;20432;-50
2021/04/28 00:25:59;;;;;;;7.00;3.07;;;;;;;10.81;41.67;100706.78;5115716;28;20469;-50
2021/04/28 00:28:25;;;;;;;5.27;2.40;;;;;;;10.90;41.69;100703.69;5117298;28;20457;-51
2021/04/28 00:30:52;;;;;;;7.30;2.77;;;;;;;11.04;41.15;100702.50;5115268;28;20487;-52
2021/04/28 00:33:18;;;;;;;6.53;2.90;;;;;;;10.90;41.45;100699.41;5116028;28;20424;-50
2021/04/28 00:35:46;;;;;;;5.47;2.60;;;;;;;10.94;41.35;100696.09;5114569;28;20796;-52
2021/04/28 00:38:13;;;;;;;7.77;2.83;;;;;;;10.77;41.57;100686.84;5115556;28;20438;-53
2021/04/28 00:40:41;;;;;;;7.97;3.20;;;;;;;10.78;41.46;100696.34;5113747;28;20492;-50
2021/04/28 00:43:07;;;;;;;7.13;2.57;;;;;;;10.77;41.30;100686.84;5115809;28;20559;-51
2021/04/28 00:45:34;;;;;;;5.60;2.80;;;;;;;10.60;42.16;100687.03;5114315;28;20484;-52
2021/04/28 00:48:03;;;;;;;8.53;3.17;;;;;;;10.46;42.41;100688.19;5115475;28;20464;-55
2021/04/28 00:50:31;;;;;;;5.97;2.67;;;;;;;10.55;41.84;100685.97;5113757;28;20481;-53
2021/04/28 00:53:00;;;;;;;8.20;2.77;;;;;;;10.41;42.36;100687.94;5115672;28;20518;-56
2021/04/28 00:55:27;;;;;;;5.97;2.57;;;;;;;10.70;41.58;100679.66;5114443;28;20451;-48
2021/04/28 00:57:53;;;;;;;7.97;2.93;;;;;;;10.46;42.08;100685.59;5115595;28;20457;-49
2021/04/28 01:00:23;;;;;;;10.07;2.97;;;;;;;10.57;41.85;100676.59;5113563;28;20491;-50
2021/04/28 01:02:49;;;;;;;6.63;2.57;;;;;;;10.40;42.30;100671.59;5115715;28;20949;-47
2021/04/28 01:05:17;;;;;;;6.77;2.70;;;;;;;10.19;42.80;100675.84;5114396;28;20568;-50
2021/04/28 01:07:45;;;;;;;9.43;2.90;;;;;;;10.25;42.64;100677.00;5115919;28;20483;-49
2021/04/28 01:10:15;;;;;;;8.10;2.33;;;;;;;10.57;41.79;100673.13;5113994;28;20455;-50
2021/04/28 01:12:42;;;;;;;5.43;2.70;;;;;;;10.57;41.42;100670.56;5116041;28;20829;-49
2021/04/28 01:15:11;;;;;;;6.57;2.90;;;;;;;10.45;41.85;100663.22;5114792;28;20793;-55
2021/04/28 01:17:38;;;;;;;6.13;2.50;;;;;;;10.52;41.63;100663.50;5116198;28;20872;-51
2021/04/28 01:20:06;;;;;;;5.00;2.33;;;;;;;10.59;41.21;100662.06;5114504;28;20459;-51
2021/04/28 01:22:37;;;;;;;6.33;2.40;;;;;;;10.64;41.16;100665.72;5116008;28;20522;-50
2021/04/28 01:25:05;;;;;;;5.83;2.53;;;;;;;10.64;40.99;100655.38;5114865;28;20791;-50
2021/04/28 01:27:32;;;;;;;6.33;2.60;;;;;;;10.53;41.11;100656.66;5115956;28;20476;-50
2021/04/28 01:29:59;;;;;;;7.73;2.60;;;;;;;10.33;41.69;100656.69;5114856;28;20526;-49
2021/04/28 01:32:26;;;;;;;5.63;2.23;;;;;;;10.23;41.85;100650.28;5115687;28;20483;-51
2021/04/28 01:34:54;;;;;;;7.07;2.30;;;;;;;10.20;41.97;100654.44;5114520;28;20488;-47
2021/04/28 01:37:21;;;;;;;8.33;2.47;;;;;;;10.36;41.46;100656.81;5099131;28;20480;-51
2021/04/28 01:39:49;;;;;;;5.63;2.37;;;;;;;10.40;41.06;100644.91;5109712;28;20502;-49
2021/04/28 01:42:16;;;;;;;5.10;2.33;;;;;;;10.57;40.78;100643.06;5115848;28;20485;-49
2021/04/28 01:44:44;;;;;;;5.73;2.53;;;;;;;10.61;40.47;100637.19;5114805;28;20852;-49
2021/04/28 01:47:12;;;;;;;5.47;2.13;;;;;;;10.53;41.23;100642.03;5116312;28;20431;-47
2021/04/28 01:49:39;;;;;;;5.43;2.27;;;;;;;10.34;42.25;100630.09;5114350;28;20467;-50
2021/04/28 01:52:05;;;;;;;5.87;2.50;;;;;;;10.35;43.17;100637.00;5115927;28;20454;-50
2021/04/28 01:54:32;;;;;;;7.30;2.33;;;;;;;10.23;43.76;100634.81;5113543;28;20471;-51
2021/04/28 01:57:00;;;;;;;6.10;2.00;;;;;;;10.20;42.43;100642.41;5115882;28;20457;-49
2021/04/28 01:59:28;;;;;;;4.80;1.90;;;;;;;10.27;41.94;100639.25;5114797;28;20497;-53
2021/04/28 02:01:56;;;;;;;5.40;2.00;;;;;;;10.35;41.27;100629.25;5115570;28;20485;-54
2021/04/28 02:04:23;;;;;;;7.43;2.50;;;;;;;10.44;41.33;100625.31;5113926;28;21001;-50
2021/04/28 02:06:51;;;;;;;8.13;2.73;;;;;;;10.24;41.38;100625.34;5115358;28;20432;-48
2021/04/28 02:09:18;;;;;;;5.90;2.30;;;;;;;10.45;40.87;100621.94;5114303;28;20931;-52
2021/04/28 02:11:44;;;;;;;5.37;2.30;;;;;;;10.21;41.82;100628.69;5115654;28;20538;-49
2021/04/28 02:14:14;;;;;;;4.40;2.00;;;;;;;10.33;41.18;100623.16;5114184;28;20460;-51
2021/04/28 02:16:41;;;;;;;6.90;2.43;;;;;;;10.35;41.11;100615.47;5115596;28;20489;-53
2021/04/28 02:19:10;;;;;;;6.40;2.10;;;;;;;10.30;40.79;100620.44;5114589;28;20492;-50
2021/04/28 02:21:38;;;;;;;5.33;2.13;;;;;;;10.37;40.54;100619.00;5115186;28;20483;-50
2021/04/28 02:24:07;;;;;;;5.20;1.93;;;;;;;10.37;40.60;100617.28;5114553;28;20457;-51
2021/04/28 02:26:34;;;;;;;5.33;1.90;;;;;;;10.24;40.71;100612.47;5115483;28;20460;-49
2021/04/28 02:29:00;;;;;;;9.53;2.37;;;;;;;10.09;41.17;100620.44;5114374;28;20434;-49
2021/04/28 02:31:28;;;;;;;5.00;2.23;;;;;;;10.12;41.06;100613.72;5115119;28;20484;-52
2021/04/28 02:33:54;;;;;;;5.20;2.27;;;;;;;10.11;40.94;100617.13;5115425;28;20461;-51
2021/04/28 02:36:21;;;;;;;5.10;2.40;;;;;;;10.20;40.89;100620.91;5114847;28;20432;-51
2021/04/28 02:38:52;;;;;;;6.60;1.80;;;;;;;10.40;40.28;100625.16;5115617;28;20548;-53
2021/04/28 02:41:19;;;;;;;5.20;2.00;;;;;;;10.25;40.89;100615.13;5113603;28;20481;-56
2021/04/28 02:43:46;;;;;;;7.87;3.27;;;;;;;10.16;41.25;100613.84;5115643;28;20826;-51
2021/04/28 02:46:14;;;;;;;5.67;2.50;;;;;;;10.12;41.34;100612.84;5114016;28;20469;-53
2021/04/28 02:48:43;;;;;;;5.37;2.50;;;;;;;10.04;41.50;100607.38;5115235;28;20453;-51
2021/04/28 02:51:10;;;;;;;5.70;2.70;;;;;;;10.25;40.77;100604.78;5113596;28;20472;-52
2021/04/28 02:53:37;;;;;;;6.73;3.10;;;;;;;10.18;40.79;100607.94;5115772;28;20479;-50
2021/04/28 02:56:04;;;;;;;10.87;3.03;;;;;;;10.21;40.78;100596.88;5114094;28;20907;-51
2021/04/28 02:58:32;;;;;;;7.27;2.73;;;;;;;10.24;40.75;100597.88;5115265;28;20432;-51
2021/04/28 03:00:59;;;;;;;6.23;2.57;;;;;;;10.26;40.57;100600.53;5113462;28;20530;-49
2021/04/28 03:03:25;;;;;;;6.23;2.13;;;;;;;10.38;40.31;100600.13;5115256;28;20460;-52
2021/04/28 03:05:53;;;;;;;6.70;2.40;;;;;;;10.05;41.02;100593.66;5113951;28;20566;-52
2021/04/28 03:08:20;;;;;;;5.40;2.30;;;;;;;9.84;41.12;100598.78;5117536;28;20471;-52
2021/04/28 03:10:48;;;;;;;7.33;2.77;;;;;;;9.81;41.55;100604.72;5117276;28;20798;-48
2021/04/28 03:13:16;;;;;;;8.93;3.80;;;;;;;9.93;41.33;100595.72;5118942;28;20503;-50
2021/04/28 03:15:43;;;;;;;11.77;2.80;;;;;;;9.82;41.52;100598.75;5117222;28;20915;-51
2021/04/28 03:18:10;;;;;;;10.63;2.40;;;;;;;9.90;41.43;100595.63;5118760;28;21293;-49
2021/04/28 03:20:36;;;;;;;6.80;3.10;;;;;;;9.77;41.63;100599.34;5117044;28;20516;-52
2021/04/28 03:23:06;;;;;;;7.33;3.20;;;;;;;9.65;41.96;100595.44;5118963;28;20804;-52
2021/04/28 03:25:33;;;;;;;11.47;4.60;;;;;;;9.62;42.38;100590.16;5117113;28;20477;-48
2021/04/28 03:27:59;;;;;;;7.07;2.57;;;;;;;8.99;43.07;100599.44;5118599;28;20460;-48
2021/04/28 03:30:26;;;;;;;6.10;2.70;;;;;;;8.96;43.46;100586.44;5116624;28;20817;-53
2021/04/28 03:32:53;;;;;;;8.20;3.40;;;;;;;9.26;43.34;100583.47;5117898;28;20543;-51
2021/04/28 03:35:19;;;;;;;5.60;2.13;;;;;;;9.26;42.76;100588.63;5117137;28;20491;-50
2021/04/28 03:37:46;;;;;;;6.27;2.63;;;;;;;8.66;44.34;100585.91;5118416;28;20460;-48
2021/04/28 03:40:14;;;;;;;8.67;3.10;;;;;;;8.79;44.13;100588.25;5116663;28;20784;-50
2021/04/28 03:42:40;;;;;;;6.87;3.03;;;;;;;8.97;43.80;100585.63;5118187;28;20556;-51
2021/04/28 03:45:08;;;;;;;13.40;5.60;;;;;;;8.93;43.90;100585.41;5116962;28;20916;-50
2021/04/28 03:47:34;;;;;;;7.97;3.53;;;;;;;9.00;43.87;100588.34;5118460;28;20765;-50
2021/04/28 03:50:01;;;;;;;7.33;3.50;;;;;;;9.22;43.22;100578.13;5116547;28;20485;-56
2021/04/28 03:52:28;;;;;;;10.13;4.47;;;;;;;9.21;43.25;100577.25;5118070;28;20479;-50
2021/04/28 03:54:54;;;;;;;9.90;3.97;;;;;;;8.97;43.67;100577.03;5116797;28;20479;-48
2021/04/28 03:57:22;;;;;;;11.30;4.27;;;;;;;9.04;43.64;100572.22;5117911;28;20542;-53
2021/04/28 03:59:48;;;;;;;8.60;4.03;;;;;;;9.14;43.25;100575.22;5116316;28;20483;-49
2021/04/28 04:02:15;;;;;;;9.57;3.30;;;;;;;9.07;43.63;100578.31;5117740;28;20485;-49
2021/04/28 04:04:42;;;;;;;6.70;3.00;;;;;;;9.03;43.28;100578.19;5115295;28;20538;-52
2021/04/28 04:07:09;;;;;;;7.30;3.23;;;;;;;8.99;43.29;100581.44;5117988;28;20464;-52
2021/04/28 04:09:35;;;;;;;12.43;4.33;;;;;;;8.92;43.58;100579.38;5116130;28;21127;-50
2021/04/28 04:12:02;;;;;;;6.03;2.83;;;;;;;8.94;43.65;100577.78;5117630;28;20798;-51
2021/04/28 04:14:30;;;;;;;7.00;3.13;;;;;;;9.20;43.12;100575.47;5116364;28;20544;-49
2021/04/28 04:16:57;;;;;;;8.57;3.70;;;;;;;9.07;43.45;100573.19;5117420;28;20896;-47
2021/04/28 04:19:24;;;;;;;9.20;3.93;;;;;;;9.04;43.44;100574.78;5115871;28;20473;-52
2021/04/28 04:21:50;;;;;;;7.50;3.17;;;;;;;9.15;42.94;100569.25;5117143;28;20484;-50
2021/04/28 04:24:17;;;;;;;6.40;2.97;;;;;;;9.17;42.91;100565.94;5116138;28;20465;-54
2021/04/28 04:26:43;;;;;;;10.90;3.63;;;;;;;9.16;43.18;100568.44;5117213;28;20438;-47
2021/04/28 04:29:10;;;;;;;6.33;2.80;;;;;;;9.21;42.66;100563.47;5116269;28;20454;-50
2021/04/28 04:31:37;;;;;;;6.53;2.83;;;;;;;9.28;42.35;100574.13;5117005;28;20479;-48
2021/04/28 04:34:04;;;;;;;8.47;3.53;;;;;;;9.11;42.95;100569.91;5115991;28;20545;-49
2021/04/28 04:36:31;;;;;;;7.70;3.07;;;;;;;9.17;42.78;100565.03;5117023;28;20579;-50
2021/04/28 04:38:58;;;;;;;52.63;22.20;;;;;;;8.97;44.13;100575.31;5115781;28;20551;-50
2021/04/28 04:41:24;;;;;;;34.97;15.20;;;;;;;9.08;43.88;100574.94;5116554;28;20750;-48
2021/04/28 04:43:51;;;;;;;58.93;23.70;;;;;;;9.10;44.64;100568.16;5117402;28;20615;-51
2021/04/28 04:46:18;;;;;;;40.30;16.97;;;;;;;9.32;43.74;100568.31;5115520;28;20935;-49
2021/04/28 04:48:45;;;;;;;27.23;13.50;;;;;;;9.20;43.97;100565.19;5116943;28;20459;-52
2021/04/28 04:51:12;;;;;;;20.97;8.90;;;;;;;9.13;43.78;100570.88;5115174;28;20547;-54
2021/04/28 04:53:38;;;;;;;22.43;10.07;;;;;;;9.05;43.99;100565.38;5116891;28;20453;-53
2021/04/28 04:56:05;;;;;;;11.60;6.03;;;;;;;9.17;43.57;100565.03;5115434;28;20488;-50
2021/04/28 04:58:32;;;;;;;10.07;4.40;;;;;;;9.35;43.01;100559.84;5116782;28;20471;-52
2021/04/28 05:00:59;;;;;;;12.10;4.73;;;;;;;9.67;42.39;100567.16;5114882;28;20906;-51
2021/04/28 05:03:25;;;;;;;11.97;4.60;;;;;;;9.56;42.78;100562.47;5116629;28;20456;-49
2021/04/28 05:05:53;;;;;;;9.83;3.93;;;;;;;9.24;43.25;100561.06;5115273;28;20960;-51
2021/04/28 05:08:19;;;;;;;7.90;3.80;;;;;;;9.38;43.04;100557.38;5116468;28;20459;-49
2021/04/28 05:10:46;;;;;;;6.80;3.63;;;;;;;9.59;42.37;100559.13;5114899;28;20485;-49
2021/04/28 05:13:13;;;;;;;6.43;3.10;;;;;;;9.51;42.39;100553.66;5116383;28;20552;-53
2021/04/28 05:15:39;;;;;;;11.70;4.03;;;;;;;9.48;42.75;100557.78;5115176;28;20487;-50
2021/04/28 05:18:06;;;;;;;7.67;3.47;;;;;;;9.94;41.48;100553.69;5116397;28;20814;-50
2021/04/28 05:20:33;;;;;;;6.23;3.20;;;;;;;10.07;41.08;100553.38;5114487;28;20483;-55
2021/04/28 05:23:01;;;;;;;6.97;3.23;;;;;;;10.04;41.16;100548.09;5116186;28;20788;-52
2021/04/28 05:25:27;;;;;;;6.70;3.37;;;;;;;10.03;40.87;100555.75;5115074;28;20495;-53
2021/04/28 05:27:54;;;;;;;8.67;4.23;;;;;;;10.13;40.79;100548.47;5116166;28;20547;-50
2021/04/28 05:30:25;;;;;;;7.63;3.33;;;;;;;10.30;40.60;100545.66;5113893;28;20528;-50
2021/04/28 05:32:52;;;;;;;7.50;3.43;;;;;;;10.28;40.41;100549.91;5115435;28;20448;-50
2021/04/28 05:35:19;;;;;;;8.83;3.50;;;;;;;10.21;40.42;100550.47;5114775;28;20481;-50
2021/04/28 05:37:46;;;;;;;7.43;3.50;;;;;;;10.43;40.25;100548.75;5116400;28;20441;-52
2021/04/28 05:40:14;;;;;;;7.60;3.60;;;;;;;10.52;40.11;100551.72;5113779;28;20534;-54
2021/04/28 05:42:41;;;;;;;7.17;3.43;;;;;;;10.64;39.80;100551.28;5115952;28;20466;-52
2021/04/28 05:45:09;;;;;;;8.40;3.67;;;;;;;10.33;40.40;100545.81;5114516;28;20451;-51
2021/04/28 05:47:36;;;;;;;21.87;4.70;;;;;;;10.63;40.16;100547.84;5115994;28;20459;-51
2021/04/28 05:50:04;;;;;;;7.93;3.70;;;;;;;10.70;39.66;100553.22;5114317;28;20490;-51
2021/04/28 05:52:30;;;;;;;7.83;3.60;;;;;;;10.83;39.63;100552.88;5115624;28;20757;-52
2021/04/28 05:54:57;;;;;;;9.37;3.77;;;;;;;11.08;38.76;100548.63;5114356;28;20571;-53
2021/04/28 05:57:32;;;;;;;7.50;3.37;;;;;;;11.19;38.73;100549.00;5095664;28;20428;-51
2021/04/28 05:59:59;;;;;;;8.70;3.50;;;;;;;11.34;38.66;100546.09;5093636;28;20478;-54
2021/04/28 06:02:26;;;;;;;9.63;3.70;;;;;;;11.37;38.51;100546.19;5095095;28;20460;-49
2021/04/28 06:04:53;;;;;;;9.20;3.90;;;;;;;11.21;38.72;100540.50;5094195;28;20452;-53
2021/04/28 06:07:20;;;;;;;11.97;4.20;;;;;;;11.55;38.07;100545.06;5101937;28;20449;-52
2021/04/28 06:09:46;;;;;;;12.93;4.20;;;;;;;11.78;37.87;100543.25;5112506;28;20447;-53
2021/04/28 06:12:13;;;;;;;9.70;4.60;;;;;;;11.65;38.28;100536.81;5115747;28;20444;-50
2021/04/28 06:14:40;;;;;;;12.60;3.50;;;;;;;11.64;37.97;100540.22;5114207;28;20477;-51
2021/04/28 06:17:07;;;;;;;8.73;3.60;;;;;;;11.83;37.87;100540.81;5115347;28;20460;-54
2021/04/28 06:19:34;;;;;;;30.43;12.90;;;;;;;12.07;37.98;100534.72;5114090;28;20476;-53
2021/04/28 06:22:01;;;;;;;12.17;4.43;;;;;;;11.95;37.26;100538.63;5115561;28;20459;-51
2021/04/28 06:24:33;;;;;;;9.10;4.47;;;;;;;11.94;37.09;100536.03;5114754;28;20448;-50
2021/04/28 06:27:00;;;;;;;12.37;5.73;;;;;;;12.17;37.07;100541.97;5115494;28;20466;-51
2021/04/28 06:29:26;;;;;;;11.73;5.17;;;;;;;12.40;36.38;100534.03;5114172;28;20483;-50
2021/04/28 06:31:54;;;;;;;9.57;4.37;;;;;;;12.13;37.03;100534.94;5115174;28;20444;-50
2021/04/28 06:34:21;;;;;;;12.63;4.60;;;;;;;12.42;36.50;100533.25;5111357;28;20440;-53
2021/04/28 06:36:47;;;;;;;10.83;3.93;;;;;;;12.59;36.70;100534.59;5095001;28;20458;-51
2021/04/28 06:39:14;;;;;;;7.60;4.03;;;;;;;12.52;36.68;100526.63;5093913;28;20513;-49
2021/04/28 06:41:42;;;;;;;7.50;4.20;;;;;;;12.77;35.85;100534.28;5098796;28;20485;-51
2021/04/28 06:44:09;;;;;;;10.40;4.07;;;;;;;13.01;35.42;100521.13;5117700;28;20515;-51
2021/04/28 06:46:36;;;;;;;8.63;4.27;;;;;;;13.27;35.09;100528.75;5118898;28;20524;-51
2021/04/28 06:49:03;;;;;;;12.37;3.73;;;;;;;13.06;35.29;100527.34;5117555;28;20475;-51
2021/04/28 06:51:30;;;;;;;9.77;4.60;;;;;;;13.26;34.96;100514.03;5118606;28;20930;-50
2021/04/28 06:54:00;;;;;;;9.07;4.10;;;;;;;13.10;34.98;100529.19;5117732;28;20896;-50
2021/04/28 06:56:26;;;;;;;12.37;4.43;;;;;;;13.25;35.02;100517.47;5118697;28;20476;-50
2021/04/28 06:58:53;;;;;;;8.53;4.30;;;;;;;13.42;34.58;100514.44;5118959;28;20854;-49
2021/04/28 07:01:20;;;;;;;8.17;4.27;;;;;;;13.74;33.97;100514.44;5118226;28;20482;-48
2021/04/28 07:03:47;;;;;;;12.37;4.80;;;;;;;14.00;33.34;100511.59;5118416;28;20549;-51
2021/04/28 07:06:15;;;;;;;9.87;4.33;;;;;;;13.58;33.98;100511.44;5117529;28;20454;-52
2021/04/28 07:08:42;;;;;;;9.07;4.60;;;;;;;13.86;33.55;100506.97;5118887;28;20824;-51
2021/04/28 07:11:08;;;;;;;12.57;4.00;;;;;;;14.21;33.09;100507.75;5116931;28;20490;-53
2021/04/28 07:13:35;;;;;;;12.83;5.27;;;;;;;14.66;32.07;100508.72;5118363;28;20873;-52
2021/04/28 07:16:01;;;;;;;17.93;8.70;;;;;;;14.95;31.71;100495.47;5103990;28;20450;-55
2021/04/28 07:18:29;;;;;;;15.47;6.90;;;;;;;14.86;31.43;100498.75;5118577;28;20533;-49
2021/04/28 07:20:56;;;;;;;29.93;13.40;;;;;;;14.76;31.91;100500.31;5116586;28;20574;-51
2021/04/28 07:23:24;;;;;;;10.70;5.27;;;;;;;14.64;31.87;100498.31;5118386;28;20882;-50
2021/04/28 07:25:50;;;;;;;17.30;6.30;;;;;;;14.76;31.95;100487.31;5116967;28;20486;-50
2021/04/28 07:28:17;;;;;;;12.80;6.20;;;;;;;15.18;31.35;100480.31;5118267;28;20455;-53
2021/04/28 07:30:44;;;;;;;29.97;6.00;;;;;;;15.38;31.22;100482.41;5116575;28;20490;-51
2021/04/28 07:33:11;;;;;;;15.27;7.60;;;;;;;15.53;30.15;100482.69;5118126;28;20458;-50
2021/04/28 07:35:37;;;;;;;14.00;4.73;;;;;;;15.10;30.08;100487.09;5116900;28;20480;-50
2021/04/28 07:38:04;;;;;;;10.50;5.00;;;;;;;15.31;30.43;100484.03;5118340;28;20456;-49
2021/04/28 07:40:32;;;;;;;9.80;5.40;;;;;;;15.51;29.59;100488.69;5116487;28;20568;-52
2021/04/28 07:42:58;;;;;;;12.90;4.53;;;;;;;15.48;29.87;100483.47;5118011;28;20571;-52
2021/04/28 07:45:25;;;;;;;14.27;5.40;;;;;;;15.27;30.29;100483.97;5116605;27;20998;-50
2021/04/28 07:47:52;;;;;;;13.40;5.43;;;;;;;15.85;29.73;100472.78;5117822;28;20453;-51
2021/04/28 07:50:19;;;;;;;12.17;5.40;;;;;;;16.13;29.35;100474.09;5116301;28;20945;-49
2021/04/28 07:52:49;;;;;;;10.20;4.63;;;;;;;15.86;29.08;100474.53;5116784;28;20472;-54
2021/04/28 07:55:16;;;;;;;8.60;4.90;;;;;;;15.98;29.05;100469.53;5116595;28;20492;-52
2021/04/28 07:57:43;;;;;;;11.40;4.90;;;;;;;15.95;29.38;100477.31;5117997;28;20445;-54
2021/04/28 08:00:13;;;;;;;11.20;4.73;;;;;;;15.76;28.72;100470.91;5116228;28;20579;-50
2021/04/28 08:02:40;;;;;;;10.07;4.83;;;;;;;16.14;28.21;100473.25;5117588;28;20493;-52
2021/04/28 08:05:07;;;;;;;8.43;4.47;;;;;;;15.97;28.46;100465.19;5116351;28;20491;-51
2021/04/28 08:07:34;;;;;;;8.73;4.47;;;;;;;16.25;27.50;100468.19;5117588;28;20911;-49
2021/04/28 08:10:02;;;;;;;13.60;5.47;;;;;;;16.13;28.25;100462.78;5116127;28;20477;-53
2021/04/28 08:12:28;;;;;;;15.27;5.50;;;;;;;15.78;27.69;100461.38;5117769;28;20495;-52
2021/04/28 08:14:56;;;;;;;12.43;4.90;;;;;;;16.30;27.36;100463.03;5116431;28;20481;-50
2021/04/28 08:17:22;;;;;;;20.43;9.17;;;;;;;16.51;28.38;100459.81;5117275;28;20449;-48
2021/04/28 08:19:49;;;;;;;9.37;4.57;;;;;;;16.97;26.52;100459.50;5112283;28;20477;-54
2021/04/28 08:22:16;;;;;;;10.60;5.20;;;;;;;16.65;25.84;100448.69;5108477;28;20485;-49
2021/04/28 08:24:43;;;;;;;12.27;6.40;;;;;;;16.72;25.90;100448.81;5114548;28;20477;-51
2021/04/28 08:27:10;;;;;;;13.23;6.53;;;;;;;16.45;26.24;100450.22;5116340;28;20543;-51
2021/04/28 08:29:36;;;;;;;9.30;5.10;;;;;;;16.84;25.92;100447.19;5114552;28;20859;-51
2021/04/28 08:32:05;;;;;;;9.73;5.00;;;;;;;17.26;24.92;100445.03;5111074;28;20786;-53
2021/04/28 08:34:33;;;;;;;10.53;5.03;;;;;;;16.94;25.28;100445.56;5114620;28;20856;-48
2021/04/28 08:37:00;;;;;;;13.13;6.40;;;;;;;17.13;24.80;100444.91;5114495;28;20461;-50
2021/04/28 08:39:26;;;;;;;10.77;5.73;;;;;;;17.30;24.71;100440.72;5103444;28;20483;-51
2021/04/28 08:41:53;;;;;;;11.60;4.73;;;;;;;16.99;24.83;100436.06;5111576;28;20491;-50
2021/04/28 08:44:19;;;;;;;10.37;5.33;;;;;;;17.34;24.36;100437.28;5110234;28;20485;-52
2021/04/28 08:46:48;;;;;;;8.80;5.00;;;;;;;17.30;24.60;100436.41;5106423;28;20508;-49
2021/04/28 08:49:15;;;;;;;11.47;5.63;;;;;;;16.86;25.05;100430.72;5101653;28;20523;-48
2021/04/28 08:51:42;;;;;;;11.97;5.30;;;;;;;17.18;24.33;100431.06;5100486;28;20931;-48
2021/04/28 08:54:09;;;;;;;9.20;4.73;;;;;;;17.51;23.77;100432.22;5109724;28;20468;-49
2021/04/28 08:56:36;;;;;;;9.63;5.13;;;;;;;17.48;24.30;100426.97;5112404;28;20548;-49
2021/04/28 08:59:05;;;;;;;10.20;5.47;;;;;;;17.79;24.12;100424.59;5114349;28;20465;-50
2021/04/28 09:01:33;;;;;;;13.53;5.73;;;;;;;17.72;24.02;100420.19;5114851;28;20931;-48
2021/04/28 09:04:00;;;;;;;8.53;4.60;;;;;;;17.60;23.53;100418.38;5114053;28;20467;-53
2021/04/28 09:06:32;;;;;;;11.53;5.60;;;;;;;18.33;23.40;100426.66;5115426;28;20500;-54
2021/04/28 09:09:04;;;;;;;9.10;4.73;;;;;;;17.65;23.69;100416.66;5114223;28;20553;-51
2021/04/28 09:11:42;;;;;;;11.00;4.47;;;;;;;17.81;23.78;100422.88;5114611;28;20527;-54
2021/04/28 09:14:11;;;;;;;10.30;5.40;;;;;;;17.89;22.40;100415.94;5110002;28;20463;-54
2021/04/28 09:16:43;;;;;;;11.50;4.90;;;;;;;18.53;22.18;100420.63;5114859;28;20912;-48
2021/04/28 09:19:20;;;;;;;9.63;5.33;;;;;;;18.42;22.74;100421.47;5109972;28;20475;-48
2021/04/28 09:21:53;;;;;;;9.10;5.07;;;;;;;17.86;23.08;100413.34;5109696;28;20489;-51
2021/04/28 09:24:21;;;;;;;11.63;5.67;;;;;;;18.20;23.31;100408.31;5113780;28;20472;-49
2021/04/28 09:26:49;;;;;;;10.23;5.20;;;;;;;18.32;23.21;100414.47;5115351;28;20819;-51
2021/04/28 09:29:17;;;;;;;12.53;6.30;;;;;;;18.15;23.15;100411.78;5114032;28;20482;-50
2021/04/28 09:31:58;;;;;;;12.73;5.17;;;;;;;17.81;23.59;100404.59;5114827;28;20499;-52
2021/04/28 09:34:30;;;;;;;14.30;5.83;;;;;;;18.34;23.57;100404.88;5113797;28;20799;-50
2021/04/28 09:37:02;;;;;;;11.60;6.37;;;;;;;18.67;23.04;100394.56;5114918;28;20979;-50
2021/04/28 09:39:29;;;;;;;20.30;10.23;;;;;;;18.43;23.68;100394.50;5114318;28;20479;-52
2021/04/28 09:41:57;;;;;;;10.60;5.13;;;;;;;18.47;23.65;100396.22;5114761;28;20489;-49
2021/04/28 09:44:30;;;;;;;11.57;6.17;;;;;;;19.22;22.95;100392.94;5113397;28;20545;-48
2021/04/28 09:47:07;;;;;;;13.10;6.50;;;;;;;19.50;22.59;100388.56;5110924;28;20544;-48
2021/04/28 09:49:44;;;;;;;12.23;7.20;;;;;;;19.11;22.68;100395.53;5109202;28;20491;-48
2021/04/28 09:52:11;;;;;;;12.40;4.90;;;;;;;18.45;22.71;100381.41;5112142;28;20570;-49
2021/04/28 09:54:38;;;;;;;11.17;5.23;;;;;;;19.20;22.46;100381.56;5113430;28;20515;-50
2021/04/28 09:57:05;;;;;;;9.90;4.50;;;;;;;19.48;22.07;100374.59;5114603;28;20460;-51
2021/04/28 09:59:43;;;;;;;8.67;4.90;;;;;;;19.75;21.95;100371.94;5107583;28;20487;-53
2021/04/28 10:02:12;;;;;;;11.67;4.97;;;;;;;19.50;22.03;100370.25;5108299;28;21030;-48
2021/04/28 10:04:39;;;;;;;12.40;5.57;;;;;;;18.73;22.67;100369.28;5107424;28;20486;-51
2021/04/28 10:07:06;;;;;;;9.67;5.70;;;;;;;19.21;22.03;100365.91;5108909;28;20470;-53
2021/04/28 10:09:35;;;;;;;11.80;5.30;;;;;;;18.76;21.75;100358.88;5106903;28;20567;-49
2021/04/28 10:12:04;;;;;;;10.00;5.03;;;;;;;18.99;21.73;100367.59;5113214;28;20483;-52
2021/04/28 10:14:31;;;;;;;9.80;4.67;;;;;;;19.61;21.59;100358.88;5113069;28;20558;-53
2021/04/28 10:17:00;;;;;;;11.27;5.60;;;;;;;19.03;21.41;100341.50;5116889;28;20468;-49
2021/04/28 10:19:27;;;;;;;11.23;5.33;;;;;;;19.12;21.43;100342.38;5118099;28;20487;-48
2021/04/28 10:21:58;;;;;;;14.30;5.97;;;;;;;19.95;21.32;100335.25;5118494;28;20490;-51
2021/04/28 10:24:25;;;;;;;11.83;5.00;;;;;;;20.02;21.27;100331.75;5117443;28;20465;-49
2021/04/28 10:26:53;;;;;;;10.47;5.43;;;;;;;19.80;20.53;100334.41;5118411;28;20775;-53
2021/04/28 10:29:20;;;;;;;13.10;5.23;;;;;;;19.97;20.02;100330.88;5117441;28;20517;-50
2021/04/28 10:31:48;;;;;;;16.70;8.20;;;;;;;20.28;20.31;100322.00;5107400;28;20553;-50
2021/04/28 10:34:25;;;;;;;12.70;6.37;;;;;;;20.09;20.73;100328.22;5110582;28;20480;-48
2021/04/28 10:36:53;;;;;;;11.10;5.30;;;;;;;20.15;20.28;100324.69;5103327;28;20462;-49
2021/04/28 10:39:23;;;;;;;11.17;5.90;;;;;;;20.29;20.92;100324.63;5109159;28;20995;-49
2021/04/28 10:41:50;;;;;;;9.17;4.97;;;;;;;20.28;20.63;100322.00;5113673;28;20495;-49
2021/04/28 10:44:40;;;;;;;10.13;5.40;;;;;;;19.76;21.17;100314.38;5108604;28;20470;-51
2021/04/28 10:47:21;;;;;;;10.90;6.30;;;;;;;20.63;20.97;100316.53;5106438;28;20467;-51
2021/04/28 10:50:19;;;;;;;9.30;5.40;;;;;;;20.62;20.88;100308.72;5116421;28;20936;-51
2021/04/28 10:52:57;;;;;;;12.60;5.30;;;;;;;20.43;20.76;100307.97;5112739;28;20532;-50
2021/04/28 10:56:08;;;;;;;9.57;5.00;;;;;;;20.59;20.70;100301.75;5107880;28;20469;-53
2021/04/28 10:58:45;;;;;;;13.43;7.20;;;;;;;20.67;21.37;100306.94;5110073;28;20928;-52
2021/04/28 11:01:33;;;;;;;9.83;6.03;;;;;;;21.14;21.39;100307.47;5106396;28;20537;-50
2021/04/28 11:04:01;;;;;;;12.53;7.10;;;;;;;20.86;20.91;100299.81;5105960;28;20512;-49
2021/04/28 11:06:35;;;;;;;12.97;6.13;;;;;;;20.67;20.55;100292.97;5115424;28;20568;-53
2021/04/28 11:09:18;;;;;;;17.80;6.93;;;;;;;20.57;21.56;100295.66;5104697;28;20485;-51
2021/04/28 11:11:51;;;;;;;13.17;7.47;;;;;;;21.26;21.16;100297.72;5108051;28;20477;-52
2021/04/28 11:14:33;;;;;;;10.80;6.20;;;;;;;20.82;21.56;100291.97;5112313;28;20483;-50
2021/04/28 11:17:21;;;;;;;14.30;8.20;;;;;;;20.39;21.68;100293.16;5114959;28;20490;-54
2021/04/28 11:19:51;;;;;;;14.37;7.60;;;;;;;20.15;21.69;100287.19;5105331;28;21111;-49
2021/04/28 11:22:27;;;;;;;11.23;6.30;;;;;;;20.53;22.33;100283.44;5112116;28;20488;-52
2021/04/28 11:24:59;;;;;;;16.87;7.30;;;;;;;21.13;21.72;100295.22;5106431;28;20938;-51
2021/04/28 11:28:01;;;;;;;13.10;7.37;;;;;;;21.67;20.69;100287.66;5109072;28;21112;-51
2021/04/28 11:30:38;;;;;;;9.73;6.17;;;;;;;21.26;20.67;100284.59;5114737;28;20522;-50